THY2018 LTFM-LTAU
Flight info
| Callsign | THY2018 |
|---|---|
| Flight time | N/A |
| Altitude | 37000 |
| Route | ASMAP UT341 BAG UA17 YUCEL UL605 BELSU UA17 KISLA |
| Aircraft | A320/M-SDE3FGHIRWY/LB1 |
Departure
| Time | N/A |
|---|---|
| Airport | İstanbul Airport (LTFM) |
Arrival
| Time | 2026-05-04 13:40 |
|---|---|
| Airport | Kayseri Erkilet International Airport (LTAU) |
| Time | Latitude | Longitude | Altitude | Speed | Heading |
|---|---|---|---|---|---|
| 2026-05-04 13:00 | 40.65582 | 30.42146 | 36272 ft | 446 kts | 93° |
| 2026-05-04 13:00 | 40.65241 | 30.46217 | 36448 ft | 447 kts | 93° |
| 2026-05-04 13:01 | 40.64791 | 30.51477 | 36665 ft | 448 kts | 94° |
| 2026-05-04 13:01 | 40.64447 | 30.55561 | 36851 ft | 449 kts | 94° |
| 2026-05-04 13:01 | 40.64104 | 30.59647 | 36974 ft | 451 kts | 93° |
| 2026-05-04 13:02 | 40.63311 | 30.67847 | 36968 ft | 453 kts | 100° |
| 2026-05-04 13:02 | 40.60992 | 30.75535 | 36987 ft | 461 kts | 119° |
| 2026-05-04 13:03 | 40.57517 | 30.82651 | 36989 ft | 462 kts | 120° |
| 2026-05-04 13:03 | 40.54042 | 30.89778 | 36981 ft | 463 kts | 120° |
| 2026-05-04 13:04 | 40.50560 | 30.96897 | 36974 ft | 463 kts | 120° |
| 2026-05-04 13:04 | 40.47084 | 31.03974 | 36973 ft | 463 kts | 120° |
| 2026-05-04 13:05 | 40.43581 | 31.11085 | 36966 ft | 464 kts | 120° |
| 2026-05-04 13:05 | 40.40070 | 31.18201 | 36960 ft | 464 kts | 119° |
| 2026-05-04 13:06 | 40.37522 | 31.25880 | 36949 ft | 458 kts | 101° |
| 2026-05-04 13:06 | 40.36186 | 31.34036 | 36941 ft | 458 kts | 99° |
| 2026-05-04 13:07 | 40.34854 | 31.42202 | 36938 ft | 458 kts | 99° |
| 2026-05-04 13:07 | 40.33510 | 31.50367 | 36935 ft | 459 kts | 99° |
| 2026-05-04 13:08 | 40.32177 | 31.58475 | 36933 ft | 459 kts | 99° |
| 2026-05-04 13:08 | 40.30823 | 31.66659 | 36923 ft | 459 kts | 99° |
| 2026-05-04 13:09 | 40.29467 | 31.74841 | 36907 ft | 459 kts | 99° |
| 2026-05-04 13:09 | 40.28111 | 31.83012 | 36902 ft | 460 kts | 99° |
| 2026-05-04 13:10 | 40.26740 | 31.91184 | 36898 ft | 460 kts | 100° |
| 2026-05-04 13:10 | 40.25161 | 31.99254 | 36891 ft | 461 kts | 103° |
| 2026-05-04 13:11 | 40.23340 | 32.07299 | 36878 ft | 462 kts | 104° |
| 2026-05-04 13:11 | 40.21508 | 32.15356 | 36874 ft | 462 kts | 104° |
| 2026-05-04 13:12 | 40.19735 | 32.23432 | 36875 ft | 462 kts | 104° |
| 2026-05-04 13:12 | 40.17984 | 32.31517 | 36873 ft | 462 kts | 104° |
| 2026-05-04 13:13 | 40.16219 | 32.39608 | 36868 ft | 462 kts | 104° |
| 2026-05-04 13:13 | 40.14435 | 32.47684 | 36865 ft | 463 kts | 104° |
| 2026-05-04 13:14 | 40.12640 | 32.55766 | 36857 ft | 463 kts | 104° |
| 2026-05-04 13:14 | 40.10843 | 32.63844 | 36861 ft | 463 kts | 104° |
| 2026-05-04 13:15 | 40.09050 | 32.71866 | 36856 ft | 463 kts | 104° |
| 2026-05-04 13:15 | 40.06998 | 32.79828 | 36847 ft | 465 kts | 114° |
| 2026-05-04 13:16 | 40.03365 | 32.86827 | 36841 ft | 468 kts | 128° |
| 2026-05-04 13:16 | 39.99230 | 32.93396 | 36842 ft | 468 kts | 128° |
| 2026-05-04 13:17 | 39.95106 | 32.99971 | 36843 ft | 469 kts | 128° |
| 2026-05-04 13:17 | 39.90970 | 33.06544 | 36841 ft | 468 kts | 128° |
| 2026-05-04 13:18 | 39.86851 | 33.13056 | 36829 ft | 469 kts | 128° |
| 2026-05-04 13:18 | 39.82704 | 33.19606 | 36829 ft | 469 kts | 128° |
| 2026-05-04 13:19 | 39.78554 | 33.26156 | 36821 ft | 469 kts | 128° |
| 2026-05-04 13:19 | 39.74399 | 33.32697 | 36823 ft | 469 kts | 129° |
| 2026-05-04 13:20 | 39.70233 | 33.39238 | 36817 ft | 470 kts | 129° |
| 2026-05-04 13:20 | 39.66058 | 33.45773 | 36820 ft | 470 kts | 129° |
| 2026-05-04 13:21 | 39.61877 | 33.52305 | 36821 ft | 469 kts | 129° |
| 2026-05-04 13:21 | 39.57726 | 33.58778 | 36813 ft | 470 kts | 129° |
| 2026-05-04 13:22 | 39.53605 | 33.65342 | 36815 ft | 469 kts | 128° |
| 2026-05-04 13:22 | 39.49533 | 33.71966 | 36820 ft | 470 kts | 128° |
| 2026-05-04 13:23 | 39.45459 | 33.78564 | 36820 ft | 469 kts | 129° |
| 2026-05-04 13:23 | 39.41309 | 33.85074 | 36827 ft | 469 kts | 130° |
| 2026-05-04 13:24 | 39.37115 | 33.91504 | 36828 ft | 469 kts | 131° |
| 2026-05-04 13:24 | 39.32907 | 33.97950 | 36825 ft | 469 kts | 130° |
| 2026-05-04 13:25 | 39.26631 | 34.07684 | 36824 ft | 470 kts | 130° |
| 2026-05-04 13:25 | 39.22614 | 34.14336 | 36826 ft | 470 kts | 119° |
| 2026-05-04 13:26 | 39.21322 | 34.18202 | 36493 ft | 471 kts | 109° |
| 2026-05-04 13:26 | 39.20318 | 34.22173 | 35110 ft | 475 kts | 108° |
| 2026-05-04 13:26 | 39.19345 | 34.26271 | 33616 ft | 479 kts | 107° |
| 2026-05-04 13:26 | 39.18390 | 34.30445 | 31932 ft | 479 kts | 107° |
| 2026-05-04 13:27 | 39.17467 | 34.34510 | 30336 ft | 478 kts | 107° |
| 2026-05-04 13:27 | 39.16530 | 34.38595 | 29115 ft | 475 kts | 108° |
| 2026-05-04 13:27 | 39.15588 | 34.42627 | 28449 ft | 464 kts | 108° |
| 2026-05-04 13:27 | 39.14650 | 34.46570 | 27680 ft | 457 kts | 109° |
| 2026-05-04 13:28 | 39.13716 | 34.50459 | 26922 ft | 451 kts | 109° |
| 2026-05-04 13:28 | 39.12790 | 34.54289 | 26188 ft | 445 kts | 109° |
| 2026-05-04 13:28 | 39.11873 | 34.58075 | 25471 ft | 440 kts | 110° |
| 2026-05-04 13:28 | 39.11351 | 34.60230 | 25065 ft | 437 kts | 110° |
| 2026-05-04 13:29 | 39.10454 | 34.63944 | 24358 ft | 432 kts | 110° |
| 2026-05-04 13:29 | 39.09569 | 34.67618 | 23664 ft | 428 kts | 110° |
| 2026-05-04 13:29 | 39.08691 | 34.71258 | 22915 ft | 424 kts | 110° |
| 2026-05-04 13:29 | 39.07820 | 34.74860 | 22259 ft | 417 kts | 110° |
| 2026-05-04 13:30 | 39.06963 | 34.78395 | 21657 ft | 411 kts | 110° |
| 2026-05-04 13:30 | 39.06117 | 34.81877 | 21077 ft | 405 kts | 110° |
| 2026-05-04 13:30 | 39.05282 | 34.85316 | 20526 ft | 400 kts | 110° |
| 2026-05-04 13:30 | 39.04457 | 34.88709 | 19989 ft | 395 kts | 110° |
| 2026-05-04 13:31 | 39.03641 | 34.92066 | 19464 ft | 391 kts | 110° |
| 2026-05-04 13:31 | 39.02830 | 34.95392 | 18943 ft | 388 kts | 110° |
| 2026-05-04 13:31 | 39.02025 | 34.98687 | 18426 ft | 385 kts | 110° |
| 2026-05-04 13:31 | 39.01226 | 35.01955 | 17872 ft | 383 kts | 110° |
| 2026-05-04 13:32 | 39.00440 | 35.05167 | 17322 ft | 379 kts | 110° |
| 2026-05-04 13:32 | 38.99647 | 35.08385 | 16778 ft | 376 kts | 110° |
| 2026-05-04 13:32 | 38.98858 | 35.11574 | 16225 ft | 373 kts | 110° |
| 2026-05-04 13:32 | 38.98075 | 35.14745 | 15682 ft | 371 kts | 110° |
| 2026-05-04 13:33 | 38.97297 | 35.17899 | 15123 ft | 369 kts | 109° |
| 2026-05-04 13:33 | 38.96525 | 35.21042 | 14564 ft | 369 kts | 109° |
| 2026-05-04 13:33 | 38.95755 | 35.24175 | 13988 ft | 367 kts | 109° |
| 2026-05-04 13:33 | 38.94984 | 35.27295 | 13383 ft | 366 kts | 109° |
| 2026-05-04 13:34 | 38.94215 | 35.30400 | 12785 ft | 363 kts | 110° |
| 2026-05-04 13:34 | 38.93452 | 35.33476 | 12203 ft | 360 kts | 110° |
| 2026-05-04 13:34 | 38.92694 | 35.36520 | 11614 ft | 356 kts | 110° |
| 2026-05-04 13:34 | 38.91942 | 35.39540 | 11019 ft | 353 kts | 109° |
| 2026-05-04 13:35 | 38.91196 | 35.42537 | 10429 ft | 350 kts | 110° |
| 2026-05-04 13:35 | 38.89775 | 35.48271 | 10080 ft | 321 kts | 110° |
| 2026-05-04 13:35 | 38.89114 | 35.50944 | 9963 ft | 307 kts | 110° |
| 2026-05-04 13:36 | 38.88478 | 35.53506 | 9827 ft | 296 kts | 111° |
| 2026-05-04 13:36 | 38.87859 | 35.55978 | 9679 ft | 287 kts | 111° |
| 2026-05-04 13:36 | 38.87241 | 35.58422 | 9065 ft | 292 kts | 111° |
| 2026-05-04 13:36 | 38.86597 | 35.60954 | 8239 ft | 304 kts | 111° |
| 2026-05-04 13:37 | 38.85893 | 35.63514 | 7786 ft | 299 kts | 120° |
| 2026-05-04 13:37 | 38.84621 | 35.65394 | 7701 ft | 274 kts | 150° |
| 2026-05-04 13:37 | 38.82891 | 35.66078 | 7629 ft | 255 kts | 180° |
| 2026-05-04 13:37 | 38.81716 | 35.65869 | 7440 ft | 255 kts | 197° |
| 2026-05-04 13:38 | 38.79841 | 35.63926 | 6496 ft | 283 kts | 239° |
| 2026-05-04 13:38 | 38.79205 | 35.61485 | 5978 ft | 286 kts | 256° |
| 2026-05-04 13:38 | 38.78837 | 35.59111 | 5711 ft | 261 kts | 256° |
| 2026-05-04 13:38 | 38.78448 | 35.56858 | 4956 ft | 252 kts | 254° |
| 2026-05-04 13:39 | 38.78058 | 35.54799 | 4451 ft | 218 kts | 254° |
| 2026-05-04 13:39 | 38.77703 | 35.53027 | 3962 ft | 196 kts | 255° |
| 2026-05-04 13:39 | 38.77389 | 35.51388 | 3542 ft | 183 kts | 257° |
| 2026-05-04 13:39 | 38.77126 | 35.49929 | 3462 ft | 140 kts | 256° |
| 2026-05-04 13:40 | 38.77005 | 35.49265 | 3466 ft | 79 kts | 255° |
| 2026-05-04 13:40 | 38.76994 | 35.49215 | 3466 ft | 73 kts | 253° |
| 2026-05-04 13:40 | 38.76935 | 35.48951 | 3467 ft | 4 kts | 256° |
| 2026-05-04 13:40 | 38.76916 | 35.48851 | 3465 ft | 21 kts | 256° |
| 2026-05-04 13:41 | 38.76869 | 35.48646 | 3466 ft | 14 kts | 244° |
| 2026-05-04 13:41 | 38.76810 | 35.48635 | 3468 ft | 1 kts | 174° |
| 2026-05-04 13:42 | 38.76718 | 35.48576 | 3468 ft | 7 kts | 261° |
| 2026-05-04 13:42 | 38.76686 | 35.48572 | 3468 ft | 1 kts | 153° |
| 2026-05-04 13:42 | 38.76709 | 35.48557 | 3467 ft | 0 kts | 153° |
| 2026-05-04 13:42 | 38.76665 | 35.48582 | 3468 ft | 7 kts | 165° |
| 2026-05-04 13:43 | 38.76643 | 35.48589 | 3468 ft | 1 kts | 166° |
| 2026-05-04 13:43 | 38.76640 | 35.48590 | 3468 ft | 0 kts | 166° |